sensor_id;sensor_type;location;lat;lon;timestamp;P1;durP1;ratioP1;P2;durP2;ratioP2
2854;SDS011;1435;49.472;10.940;2022-08-04T00:00:13;4.80;;;2.50;;
2854;SDS011;1435;49.472;10.940;2022-08-04T00:05:26;2.30;;;2.10;;
2854;SDS011;1435;49.472;10.940;2022-08-04T00:10:31;2.70;;;2.50;;
2854;SDS011;1435;49.472;10.940;2022-08-04T00:15:34;3.43;;;2.70;;
2854;SDS011;1435;49.472;10.940;2022-08-04T00:20:38;3.17;;;2.87;;
2854;SDS011;1435;49.472;10.940;2022-08-04T00:25:42;2.73;;;2.53;;
2854;SDS011;1435;49.472;10.940;2022-08-04T00:30:44;3.33;;;3.03;;
2854;SDS011;1435;49.472;10.940;2022-08-04T00:35:48;3.10;;;2.47;;
2854;SDS011;1435;49.472;10.940;2022-08-04T00:40:54;2.53;;;2.33;;
2854;SDS011;1435;49.472;10.940;2022-08-04T00:51:41;2.10;;;2.00;;
2854;SDS011;1435;49.472;10.940;2022-08-04T00:57:05;2.50;;;2.30;;
2854;SDS011;1435;49.472;10.940;2022-08-04T01:02:24;2.53;;;2.43;;
2854;SDS011;1435;49.472;10.940;2022-08-04T01:13:15;2.50;;;2.30;;
2854;SDS011;1435;49.472;10.940;2022-08-04T01:18:35;2.30;;;2.20;;
2854;SDS011;1435;49.472;10.940;2022-08-04T01:23:56;2.33;;;2.13;;
2854;SDS011;1435;49.472;10.940;2022-08-04T01:29:15;4.50;;;2.77;;
2854;SDS011;1435;49.472;10.940;2022-08-04T01:34:18;2.50;;;2.40;;
2854;SDS011;1435;49.472;10.940;2022-08-04T01:39:21;2.67;;;2.47;;
2854;SDS011;1435;49.472;10.940;2022-08-04T01:44:42;2.90;;;2.70;;
2854;SDS011;1435;49.472;10.940;2022-08-04T01:49:49;3.83;;;2.40;;
2854;SDS011;1435;49.472;10.940;2022-08-04T01:54:51;2.47;;;2.37;;
2854;SDS011;1435;49.472;10.940;2022-08-04T01:59:55;3.37;;;3.10;;
2854;SDS011;1435;49.472;10.940;2022-08-04T02:05:00;2.50;;;2.30;;
2854;SDS011;1435;49.472;10.940;2022-08-04T02:10:03;2.80;;;2.60;;
2854;SDS011;1435;49.472;10.940;2022-08-04T02:15:09;3.27;;;3.00;;
2854;SDS011;1435;49.472;10.940;2022-08-04T02:20:18;3.03;;;2.60;;
2854;SDS011;1435;49.472;10.940;2022-08-04T02:25:24;3.73;;;3.30;;
2854;SDS011;1435;49.472;10.940;2022-08-04T02:30:33;3.00;;;2.80;;
2854;SDS011;1435;49.472;10.940;2022-08-04T02:35:41;2.83;;;2.63;;
2854;SDS011;1435;49.472;10.940;2022-08-04T02:40:45;3.33;;;3.13;;
2854;SDS011;1435;49.472;10.940;2022-08-04T02:45:49;3.10;;;2.90;;
2854;SDS011;1435;49.472;10.940;2022-08-04T02:50:55;2.77;;;2.57;;
2854;SDS011;1435;49.472;10.940;2022-08-04T02:55:59;3.10;;;2.80;;
2854;SDS011;1435;49.472;10.940;2022-08-04T03:01:03;3.07;;;2.77;;
2854;SDS011;1435;49.472;10.940;2022-08-04T03:06:13;3.00;;;2.80;;
2854;SDS011;1435;49.472;10.940;2022-08-04T03:11:41;3.40;;;2.87;;
2854;SDS011;1435;49.472;10.940;2022-08-04T03:22:58;3.27;;;2.97;;
2854;SDS011;1435;49.472;10.940;2022-08-04T03:28:22;2.90;;;2.70;;
2854;SDS011;1435;49.472;10.940;2022-08-04T03:33:55;3.23;;;3.03;;
2854;SDS011;1435;49.472;10.940;2022-08-04T03:45:13;3.10;;;2.83;;
2854;SDS011;1435;49.472;10.940;2022-08-04T03:50:54;3.10;;;2.90;;
2854;SDS011;1435;49.472;10.940;2022-08-04T03:56:50;3.60;;;3.40;;
2854;SDS011;1435;49.472;10.940;2022-08-04T04:02:19;2.97;;;2.77;;
2854;SDS011;1435;49.472;10.940;2022-08-04T04:08:01;4.00;;;3.60;;
2854;SDS011;1435;49.472;10.940;2022-08-04T04:13:33;3.07;;;2.60;;
2854;SDS011;1435;49.472;10.940;2022-08-04T04:19:16;3.27;;;3.07;;
2854;SDS011;1435;49.472;10.940;2022-08-04T04:24:39;3.13;;;2.93;;
2854;SDS011;1435;49.472;10.940;2022-08-04T04:29:59;3.10;;;2.90;;
2854;SDS011;1435;49.472;10.940;2022-08-04T04:35:09;3.47;;;3.17;;
2854;SDS011;1435;49.472;10.940;2022-08-04T04:40:26;3.00;;;2.80;;
2854;SDS011;1435;49.472;10.940;2022-08-04T04:45:35;4.00;;;3.70;;
2854;SDS011;1435;49.472;10.940;2022-08-04T04:50:46;3.93;;;3.67;;
2854;SDS011;1435;49.472;10.940;2022-08-04T04:55:58;3.80;;;3.50;;
2854;SDS011;1435;49.472;10.940;2022-08-04T05:01:11;5.10;;;3.00;;
2854;SDS011;1435;49.472;10.940;2022-08-04T05:06:43;3.93;;;3.63;;
2854;SDS011;1435;49.472;10.940;2022-08-04T05:17:27;3.03;;;2.67;;
2854;SDS011;1435;49.472;10.940;2022-08-04T05:22:34;3.30;;;3.00;;
2854;SDS011;1435;49.472;10.940;2022-08-04T05:27:44;2.77;;;2.50;;
2854;SDS011;1435;49.472;10.940;2022-08-04T05:32:53;3.20;;;2.90;;
2854;SDS011;1435;49.472;10.940;2022-08-04T05:37:57;3.23;;;3.03;;
2854;SDS011;1435;49.472;10.940;2022-08-04T05:43:02;3.00;;;2.70;;
2854;SDS011;1435;49.472;10.940;2022-08-04T05:48:06;3.30;;;3.00;;
2854;SDS011;1435;49.472;10.940;2022-08-04T05:53:09;3.10;;;2.80;;
2854;SDS011;1435;49.472;10.940;2022-08-04T05:58:14;4.17;;;3.23;;
2854;SDS011;1435;49.472;10.940;2022-08-04T06:03:17;2.73;;;2.53;;
2854;SDS011;1435;49.472;10.940;2022-08-04T06:08:21;3.77;;;2.40;;
2854;SDS011;1435;49.472;10.940;2022-08-04T06:13:28;3.27;;;2.60;;
2854;SDS011;1435;49.472;10.940;2022-08-04T06:18:30;5.77;;;3.10;;
2854;SDS011;1435;49.472;10.940;2022-08-04T06:23:36;5.57;;;3.03;;
2854;SDS011;1435;49.472;10.940;2022-08-04T06:28:43;4.70;;;3.40;;
2854;SDS011;1435;49.472;10.940;2022-08-04T06:33:47;2.93;;;2.53;;
2854;SDS011;1435;49.472;10.940;2022-08-04T06:38:51;3.17;;;2.97;;
2854;SDS011;1435;49.472;10.940;2022-08-04T06:43:55;3.20;;;3.00;;
2854;SDS011;1435;49.472;10.940;2022-08-04T06:49:01;3.13;;;2.77;;
2854;SDS011;1435;49.472;10.940;2022-08-04T06:54:04;2.77;;;2.57;;
2854;SDS011;1435;49.472;10.940;2022-08-04T06:59:07;3.37;;;2.90;;
2854;SDS011;1435;49.472;10.940;2022-08-04T07:04:11;2.93;;;2.73;;
2854;SDS011;1435;49.472;10.940;2022-08-04T07:09:13;4.30;;;3.30;;
2854;SDS011;1435;49.472;10.940;2022-08-04T07:14:17;2.67;;;2.47;;
2854;SDS011;1435;49.472;10.940;2022-08-04T07:19:19;4.30;;;3.07;;
2854;SDS011;1435;49.472;10.940;2022-08-04T07:24:27;3.20;;;2.90;;
2854;SDS011;1435;49.472;10.940;2022-08-04T07:29:31;2.97;;;2.70;;
2854;SDS011;1435;49.472;10.940;2022-08-04T07:34:34;3.07;;;2.87;;
2854;SDS011;1435;49.472;10.940;2022-08-04T07:39:38;4.63;;;3.10;;
2854;SDS011;1435;49.472;10.940;2022-08-04T07:44:41;3.00;;;2.80;;
2854;SDS011;1435;49.472;10.940;2022-08-04T07:49:45;5.57;;;2.60;;
2854;SDS011;1435;49.472;10.940;2022-08-04T07:54:48;3.70;;;3.40;;
2854;SDS011;1435;49.472;10.940;2022-08-04T07:59:51;3.50;;;2.90;;
2854;SDS011;1435;49.472;10.940;2022-08-04T08:04:53;3.20;;;2.90;;
2854;SDS011;1435;49.472;10.940;2022-08-04T08:09:55;2.90;;;2.70;;
2854;SDS011;1435;49.472;10.940;2022-08-04T08:14:58;2.80;;;2.60;;
2854;SDS011;1435;49.472;10.940;2022-08-04T08:20:01;4.93;;;2.43;;
2854;SDS011;1435;49.472;10.940;2022-08-04T08:25:04;3.17;;;2.87;;
2854;SDS011;1435;49.472;10.940;2022-08-04T08:30:08;3.20;;;2.83;;
2854;SDS011;1435;49.472;10.940;2022-08-04T08:35:10;3.40;;;3.10;;
2854;SDS011;1435;49.472;10.940;2022-08-04T08:40:17;2.20;;;2.10;;
2854;SDS011;1435;49.472;10.940;2022-08-04T08:45:49;4.50;;;2.77;;
2854;SDS011;1435;49.472;10.940;2022-08-04T08:51:16;3.50;;;2.87;;
2854;SDS011;1435;49.472;10.940;2022-08-04T08:56:32;3.80;;;2.67;;
2854;SDS011;1435;49.472;10.940;2022-08-04T09:01:44;2.20;;;2.00;;
2854;SDS011;1435;49.472;10.940;2022-08-04T09:06:58;2.50;;;2.40;;
2854;SDS011;1435;49.472;10.940;2022-08-04T09:12:11;2.60;;;2.40;;
2854;SDS011;1435;49.472;10.940;2022-08-04T09:17:21;3.07;;;2.70;;
2854;SDS011;1435;49.472;10.940;2022-08-04T09:22:29;3.23;;;2.07;;
2854;SDS011;1435;49.472;10.940;2022-08-04T09:27:38;2.60;;;2.40;;
2854;SDS011;1435;49.472;10.940;2022-08-04T09:32:50;2.63;;;2.40;;
2854;SDS011;1435;49.472;10.940;2022-08-04T09:38:00;2.33;;;2.20;;
2854;SDS011;1435;49.472;10.940;2022-08-04T09:43:13;2.30;;;2.10;;
2854;SDS011;1435;49.472;10.940;2022-08-04T09:48:27;2.07;;;1.97;;
2854;SDS011;1435;49.472;10.940;2022-08-04T09:53:37;2.10;;;1.90;;
2854;SDS011;1435;49.472;10.940;2022-08-04T09:58:51;2.50;;;2.30;;
2854;SDS011;1435;49.472;10.940;2022-08-04T10:04:00;2.60;;;2.40;;
2854;SDS011;1435;49.472;10.940;2022-08-04T10:09:07;3.13;;;2.23;;
2854;SDS011;1435;49.472;10.940;2022-08-04T10:14:19;3.93;;;2.50;;
2854;SDS011;1435;49.472;10.940;2022-08-04T10:19:37;2.37;;;2.27;;
2854;SDS011;1435;49.472;10.940;2022-08-04T10:24:44;2.93;;;2.70;;
2854;SDS011;1435;49.472;10.940;2022-08-04T10:29:53;2.40;;;2.20;;
2854;SDS011;1435;49.472;10.940;2022-08-04T10:35:04;2.73;;;2.53;;
2854;SDS011;1435;49.472;10.940;2022-08-04T10:40:11;2.43;;;2.20;;
2854;SDS011;1435;49.472;10.940;2022-08-04T10:45:35;2.40;;;2.20;;
2854;SDS011;1435;49.472;10.940;2022-08-04T10:50:47;2.20;;;2.00;;
2854;SDS011;1435;49.472;10.940;2022-08-04T10:56:01;2.63;;;2.20;;
2854;SDS011;1435;49.472;10.940;2022-08-04T11:01:07;2.50;;;2.27;;
2854;SDS011;1435;49.472;10.940;2022-08-04T11:06:17;2.60;;;2.50;;
2854;SDS011;1435;49.472;10.940;2022-08-04T11:11:22;2.33;;;2.13;;
2854;SDS011;1435;49.472;10.940;2022-08-04T11:16:31;2.20;;;2.10;;
2854;SDS011;1435;49.472;10.940;2022-08-04T11:21:41;2.27;;;2.17;;
2854;SDS011;1435;49.472;10.940;2022-08-04T11:26:47;2.53;;;2.07;;
2854;SDS011;1435;49.472;10.940;2022-08-04T11:31:51;2.27;;;2.07;;
2854;SDS011;1435;49.472;10.940;2022-08-04T11:37:02;2.53;;;2.33;;
2854;SDS011;1435;49.472;10.940;2022-08-04T11:42:09;2.20;;;2.07;;
2854;SDS011;1435;49.472;10.940;2022-08-04T11:47:20;3.20;;;2.27;;
2854;SDS011;1435;49.472;10.940;2022-08-04T11:52:31;2.30;;;2.00;;
2854;SDS011;1435;49.472;10.940;2022-08-04T11:57:35;1.90;;;1.80;;
2854;SDS011;1435;49.472;10.940;2022-08-04T12:02:45;2.10;;;2.00;;
2854;SDS011;1435;49.472;10.940;2022-08-04T12:08:05;2.00;;;1.90;;
2854;SDS011;1435;49.472;10.940;2022-08-04T12:13:23;2.27;;;2.17;;
2854;SDS011;1435;49.472;10.940;2022-08-04T12:18:32;2.20;;;2.10;;
2854;SDS011;1435;49.472;10.940;2022-08-04T12:23:40;2.67;;;2.40;;
2854;SDS011;1435;49.472;10.940;2022-08-04T12:28:45;5.00;;;2.50;;
2854;SDS011;1435;49.472;10.940;2022-08-04T12:33:50;2.83;;;2.57;;
2854;SDS011;1435;49.472;10.940;2022-08-04T12:38:59;2.20;;;2.00;;
2854;SDS011;1435;49.472;10.940;2022-08-04T12:44:06;2.30;;;2.13;;
2854;SDS011;1435;49.472;10.940;2022-08-04T12:49:13;2.10;;;2.00;;
2854;SDS011;1435;49.472;10.940;2022-08-04T12:54:21;3.00;;;2.80;;
2854;SDS011;1435;49.472;10.940;2022-08-04T12:59:25;2.20;;;2.10;;
2854;SDS011;1435;49.472;10.940;2022-08-04T13:04:27;2.70;;;2.50;;
2854;SDS011;1435;49.472;10.940;2022-08-04T13:09:33;3.33;;;2.20;;
2854;SDS011;1435;49.472;10.940;2022-08-04T13:14:39;4.00;;;2.37;;
2854;SDS011;1435;49.472;10.940;2022-08-04T13:19:45;2.27;;;2.17;;
2854;SDS011;1435;49.472;10.940;2022-08-04T13:24:50;2.10;;;1.90;;
2854;SDS011;1435;49.472;10.940;2022-08-04T13:29:54;2.27;;;2.17;;
2854;SDS011;1435;49.472;10.940;2022-08-04T13:34:58;2.60;;;2.40;;
2854;SDS011;1435;49.472;10.940;2022-08-04T13:40:04;2.50;;;2.20;;
2854;SDS011;1435;49.472;10.940;2022-08-04T13:45:10;3.07;;;2.87;;
2854;SDS011;1435;49.472;10.940;2022-08-04T13:50:14;2.67;;;2.57;;
2854;SDS011;1435;49.472;10.940;2022-08-04T13:55:23;3.20;;;2.50;;
2854;SDS011;1435;49.472;10.940;2022-08-04T14:00:36;2.63;;;2.43;;
2854;SDS011;1435;49.472;10.940;2022-08-04T14:05:41;3.37;;;2.40;;
2854;SDS011;1435;49.472;10.940;2022-08-04T14:10:53;2.60;;;2.40;;
2854;SDS011;1435;49.472;10.940;2022-08-04T14:15:57;2.97;;;2.50;;
2854;SDS011;1435;49.472;10.940;2022-08-04T14:21:05;4.60;;;2.40;;
2854;SDS011;1435;49.472;10.940;2022-08-04T14:26:16;2.60;;;2.40;;
2854;SDS011;1435;49.472;10.940;2022-08-04T14:31:20;2.57;;;2.40;;
2854;SDS011;1435;49.472;10.940;2022-08-04T14:36:23;3.67;;;2.57;;
2854;SDS011;1435;49.472;10.940;2022-08-04T14:41:27;2.33;;;2.13;;
2854;SDS011;1435;49.472;10.940;2022-08-04T14:46:31;2.33;;;2.00;;
2854;SDS011;1435;49.472;10.940;2022-08-04T14:51:34;2.00;;;1.90;;
2854;SDS011;1435;49.472;10.940;2022-08-04T14:56:40;2.63;;;2.30;;
2854;SDS011;1435;49.472;10.940;2022-08-04T15:01:52;2.20;;;2.10;;
2854;SDS011;1435;49.472;10.940;2022-08-04T15:06:55;2.00;;;1.77;;
2854;SDS011;1435;49.472;10.940;2022-08-04T15:11:58;2.40;;;2.20;;
2854;SDS011;1435;49.472;10.940;2022-08-04T15:17:01;2.57;;;2.13;;
2854;SDS011;1435;49.472;10.940;2022-08-04T15:22:03;2.37;;;2.17;;
2854;SDS011;1435;49.472;10.940;2022-08-04T15:27:06;2.33;;;2.23;;
2854;SDS011;1435;49.472;10.940;2022-08-04T15:32:10;3.30;;;1.93;;
2854;SDS011;1435;49.472;10.940;2022-08-04T15:37:17;2.27;;;2.10;;
2854;SDS011;1435;49.472;10.940;2022-08-04T15:42:31;2.47;;;2.20;;
2854;SDS011;1435;49.472;10.940;2022-08-04T15:47:36;4.37;;;2.17;;
2854;SDS011;1435;49.472;10.940;2022-08-04T15:53:01;3.80;;;1.83;;
2854;SDS011;1435;49.472;10.940;2022-08-04T15:58:06;2.67;;;2.27;;
2854;SDS011;1435;49.472;10.940;2022-08-04T16:03:10;2.60;;;2.40;;
2854;SDS011;1435;49.472;10.940;2022-08-04T16:08:56;3.33;;;2.23;;
2854;SDS011;1435;49.472;10.940;2022-08-04T16:14:07;2.50;;;2.30;;
2854;SDS011;1435;49.472;10.940;2022-08-04T16:19:13;1.60;;;1.50;;
2854;SDS011;1435;49.472;10.940;2022-08-04T16:24:26;1.70;;;1.60;;
2854;SDS011;1435;49.472;10.940;2022-08-04T16:29:30;2.43;;;2.23;;
2854;SDS011;1435;49.472;10.940;2022-08-04T16:34:39;2.30;;;2.17;;
2854;SDS011;1435;49.472;10.940;2022-08-04T16:39:42;2.07;;;1.97;;
2854;SDS011;1435;49.472;10.940;2022-08-04T16:44:44;1.90;;;1.80;;
2854;SDS011;1435;49.472;10.940;2022-08-04T16:50:01;2.83;;;2.07;;
2854;SDS011;1435;49.472;10.940;2022-08-04T16:55:03;1.83;;;1.73;;
2854;SDS011;1435;49.472;10.940;2022-08-04T17:00:06;3.23;;;2.00;;
2854;SDS011;1435;49.472;10.940;2022-08-04T17:05:18;1.90;;;1.80;;
2854;SDS011;1435;49.472;10.940;2022-08-04T17:10:29;2.50;;;2.20;;
2854;SDS011;1435;49.472;10.940;2022-08-04T17:15:32;2.50;;;1.87;;
2854;SDS011;1435;49.472;10.940;2022-08-04T17:20:39;3.43;;;1.80;;
2854;SDS011;1435;49.472;10.940;2022-08-04T17:25:49;2.33;;;2.13;;
2854;SDS011;1435;49.472;10.940;2022-08-04T17:30:52;2.40;;;2.20;;
2854;SDS011;1435;49.472;10.940;2022-08-04T17:35:56;4.70;;;1.90;;
2854;SDS011;1435;49.472;10.940;2022-08-04T17:40:59;2.47;;;2.10;;
2854;SDS011;1435;49.472;10.940;2022-08-04T17:46:22;1.93;;;1.83;;
2854;SDS011;1435;49.472;10.940;2022-08-04T17:51:35;1.90;;;1.80;;
2854;SDS011;1435;49.472;10.940;2022-08-04T17:56:42;2.43;;;2.27;;
2854;SDS011;1435;49.472;10.940;2022-08-04T18:01:46;2.80;;;2.07;;
2854;SDS011;1435;49.472;10.940;2022-08-04T18:06:53;9.33;;;2.60;;
2854;SDS011;1435;49.472;10.940;2022-08-04T18:11:58;3.67;;;2.10;;
2854;SDS011;1435;49.472;10.940;2022-08-04T18:17:01;2.00;;;1.90;;
2854;SDS011;1435;49.472;10.940;2022-08-04T18:22:04;2.00;;;1.90;;
2854;SDS011;1435;49.472;10.940;2022-08-04T18:27:06;2.37;;;2.17;;
2854;SDS011;1435;49.472;10.940;2022-08-04T18:32:08;2.90;;;2.23;;
2854;SDS011;1435;49.472;10.940;2022-08-04T18:37:12;4.07;;;2.60;;
2854;SDS011;1435;49.472;10.940;2022-08-04T18:42:13;2.50;;;2.30;;
2854;SDS011;1435;49.472;10.940;2022-08-04T18:47:15;3.17;;;2.60;;
2854;SDS011;1435;49.472;10.940;2022-08-04T18:52:18;2.87;;;2.20;;
2854;SDS011;1435;49.472;10.940;2022-08-04T18:57:21;2.50;;;2.30;;
2854;SDS011;1435;49.472;10.940;2022-08-04T19:02:23;2.23;;;2.03;;
2854;SDS011;1435;49.472;10.940;2022-08-04T19:07:26;4.23;;;2.27;;
2854;SDS011;1435;49.472;10.940;2022-08-04T19:12:28;3.77;;;2.27;;
2854;SDS011;1435;49.472;10.940;2022-08-04T19:17:30;3.73;;;2.50;;
2854;SDS011;1435;49.472;10.940;2022-08-04T19:22:34;2.67;;;2.47;;
2854;SDS011;1435;49.472;10.940;2022-08-04T19:27:35;3.63;;;2.43;;
2854;SDS011;1435;49.472;10.940;2022-08-04T19:32:37;2.33;;;2.23;;
2854;SDS011;1435;49.472;10.940;2022-08-04T19:37:40;2.43;;;2.30;;
2854;SDS011;1435;49.472;10.940;2022-08-04T19:42:42;2.20;;;2.10;;
2854;SDS011;1435;49.472;10.940;2022-08-04T19:47:44;2.53;;;2.20;;
2854;SDS011;1435;49.472;10.940;2022-08-04T19:52:47;2.43;;;2.27;;
2854;SDS011;1435;49.472;10.940;2022-08-04T19:57:49;3.10;;;2.80;;
2854;SDS011;1435;49.472;10.940;2022-08-04T20:02:52;3.43;;;3.13;;
2854;SDS011;1435;49.472;10.940;2022-08-04T20:07:55;5.03;;;2.97;;
2854;SDS011;1435;49.472;10.940;2022-08-04T20:12:57;3.00;;;2.80;;
2854;SDS011;1435;49.472;10.940;2022-08-04T20:17:58;2.87;;;2.67;;
2854;SDS011;1435;49.472;10.940;2022-08-04T20:23:01;2.90;;;2.70;;
2854;SDS011;1435;49.472;10.940;2022-08-04T20:28:03;3.20;;;3.00;;
2854;SDS011;1435;49.472;10.940;2022-08-04T20:33:05;6.77;;;3.63;;
2854;SDS011;1435;49.472;10.940;2022-08-04T20:38:08;3.77;;;3.47;;
2854;SDS011;1435;49.472;10.940;2022-08-04T20:43:10;3.73;;;3.33;;
2854;SDS011;1435;49.472;10.940;2022-08-04T20:48:11;3.40;;;3.10;;
2854;SDS011;1435;49.472;10.940;2022-08-04T20:53:14;3.87;;;3.00;;
2854;SDS011;1435;49.472;10.940;2022-08-04T20:58:16;3.30;;;3.10;;
2854;SDS011;1435;49.472;10.940;2022-08-04T21:03:18;5.87;;;3.70;;
2854;SDS011;1435;49.472;10.940;2022-08-04T21:08:21;3.13;;;2.93;;
2854;SDS011;1435;49.472;10.940;2022-08-04T21:13:23;3.40;;;3.20;;
2854;SDS011;1435;49.472;10.940;2022-08-04T21:18:24;9.40;;;3.43;;
2854;SDS011;1435;49.472;10.940;2022-08-04T21:23:27;3.37;;;3.13;;
2854;SDS011;1435;49.472;10.940;2022-08-04T21:28:29;3.20;;;3.00;;
2854;SDS011;1435;49.472;10.940;2022-08-04T21:33:31;3.23;;;2.93;;
2854;SDS011;1435;49.472;10.940;2022-08-04T21:38:34;3.30;;;3.07;;
2854;SDS011;1435;49.472;10.940;2022-08-04T21:43:36;3.60;;;3.30;;
2854;SDS011;1435;49.472;10.940;2022-08-04T21:48:37;4.27;;;3.50;;
2854;SDS011;1435;49.472;10.940;2022-08-04T21:53:41;3.27;;;2.97;;
2854;SDS011;1435;49.472;10.940;2022-08-04T21:58:43;3.20;;;3.00;;
2854;SDS011;1435;49.472;10.940;2022-08-04T22:03:45;3.67;;;2.87;;
2854;SDS011;1435;49.472;10.940;2022-08-04T22:08:49;3.40;;;3.10;;
2854;SDS011;1435;49.472;10.940;2022-08-04T22:13:51;3.40;;;3.10;;
2854;SDS011;1435;49.472;10.940;2022-08-04T22:18:54;3.80;;;3.50;;
2854;SDS011;1435;49.472;10.940;2022-08-04T22:23:58;4.20;;;3.57;;
2854;SDS011;1435;49.472;10.940;2022-08-04T22:28:59;2.90;;;2.70;;
2854;SDS011;1435;49.472;10.940;2022-08-04T22:34:01;3.90;;;3.50;;
2854;SDS011;1435;49.472;10.940;2022-08-04T22:39:04;3.93;;;3.63;;
2854;SDS011;1435;49.472;10.940;2022-08-04T22:44:07;4.27;;;3.97;;
2854;SDS011;1435;49.472;10.940;2022-08-04T22:49:09;4.43;;;4.10;;
2854;SDS011;1435;49.472;10.940;2022-08-04T22:54:12;4.00;;;3.57;;
2854;SDS011;1435;49.472;10.940;2022-08-04T22:59:13;4.17;;;3.80;;
2854;SDS011;1435;49.472;10.940;2022-08-04T23:04:15;4.63;;;3.70;;
2854;SDS011;1435;49.472;10.940;2022-08-04T23:09:18;3.63;;;3.33;;
2854;SDS011;1435;49.472;10.940;2022-08-04T23:14:20;4.00;;;3.47;;
2854;SDS011;1435;49.472;10.940;2022-08-04T23:19:21;4.27;;;3.87;;
2854;SDS011;1435;49.472;10.940;2022-08-04T23:24:24;4.07;;;3.77;;
2854;SDS011;1435;49.472;10.940;2022-08-04T23:29:26;3.93;;;3.67;;
2854;SDS011;1435;49.472;10.940;2022-08-04T23:34:28;3.90;;;3.60;;
2854;SDS011;1435;49.472;10.940;2022-08-04T23:39:31;3.40;;;3.10;;
2854;SDS011;1435;49.472;10.940;2022-08-04T23:44:33;3.67;;;3.37;;
2854;SDS011;1435;49.472;10.940;2022-08-04T23:49:35;3.53;;;3.23;;
2854;SDS011;1435;49.472;10.940;2022-08-04T23:54:38;3.23;;;3.03;;
2854;SDS011;1435;49.472;10.940;2022-08-04T23:59:39;3.80;;;3.60;;
